Time;durP1;ratioP1;P1;durP2;ratioP2;P2;SDS_P1;SDS_P2;PMS_P1;PMS_P2;Temp;Humidity;BMP_temperature;BMP_pressure;BME280_temperature;BME280_humidity;BME280_pressure;Samples;Min_cycle;Max_cycle;Signal;HPM_P1;HPM_P2
2023/04/14 00:02:35;;;;;;;11.68;10.48;;;;;;;10.04;75.86;99895.72;4948668;28;20508;-78
2023/04/14 00:05:03;;;;;;;14.65;9.60;;;;;;;10.18;75.70;99918.22;4948851;28;20067;-80
2023/04/14 00:07:33;;;;;;;6.15;5.65;;;;;;;9.83;75.25;99854.41;4946556;28;20082;-79
2023/04/14 00:09:59;;;;;;;7.47;6.05;;;;;;;9.75;75.69;99853.47;4942398;28;20482;-80
2023/04/14 00:12:27;;;;;;;5.95;5.15;;;;;;;10.17;74.84;99927.16;4944585;28;20306;-81
2023/04/14 00:14:53;;;;;;;6.15;5.63;;;;;;;10.20;74.99;99916.28;4933436;28;20269;-81
2023/04/14 00:17:24;;;;;;;5.63;5.13;;;;;;;10.03;75.67;99900.19;4951317;28;20291;-79
2023/04/14 00:19:52;;;;;;;5.07;4.57;;;;;;;10.21;75.40;99917.94;4929107;29;20054;-78
2023/04/14 00:22:20;;;;;;;4.70;4.30;;;;;;;10.06;75.33;99891.91;4930029;29;20130;-79
2023/04/14 00:24:49;;;;;;;3.33;3.05;;;;;;;10.24;74.77;99917.63;4945082;28;20453;-81
2023/04/14 00:27:19;;;;;;;3.35;3.05;;;;;;;9.73;73.86;99813.03;4924635;29;20409;-79
2023/04/14 00:29:59;;;;;;;3.15;2.17;;;;;;;10.23;73.28;99900.03;4929329;29;20412;-80
2023/04/14 00:32:34;;;;;;;2.78;2.40;;;;;;;10.02;73.22;99877.31;4924960;29;20047;-80
2023/04/14 00:35:04;;;;;;;2.65;2.00;;;;;;;10.02;73.09;99892.38;4930011;29;20536;-79
2023/04/14 00:37:39;;;;;;;2.65;2.13;;;;;;;9.94;74.40;99884.34;4925407;29;20126;-79
2023/04/14 00:40:11;;;;;;;3.45;2.35;;;;;;;10.03;74.86;99916.09;4929203;28;20051;-81
2023/04/14 00:42:46;;;;;;;2.50;2.30;;;;;;;10.11;74.87;99927.78;4937262;28;20414;-80
2023/04/14 00:45:14;;;;;;;2.95;1.88;;;;;;;9.96;74.71;99916.84;4946787;28;20050;-79
2023/04/14 00:47:45;;;;;;;1.63;1.50;;;;;;;9.91;73.55;99889.94;4947112;28;20058;-78
2023/04/14 00:50:17;;;;;;;1.95;1.45;;;;;;;10.11;73.19;99915.34;4947224;28;20051;-80
2023/04/14 00:52:47;;;;;;;1.92;1.80;;;;;;;10.18;72.78;99934.97;4946290;28;20058;-80
2023/04/14 00:55:16;;;;;;;2.50;1.55;;;;;;;10.27;72.52;99928.78;4946254;28;20062;-79
2023/04/14 00:57:50;;;;;;;1.63;1.33;;;;;;;10.23;71.20;99921.25;4947328;28;20054;-79
2023/04/14 01:00:18;;;;;;;1.40;1.30;;;;;;;10.10;71.03;99920.78;4945775;28;20046;-79
2023/04/14 01:02:46;;;;;;;1.42;1.20;;;;;;;10.13;71.46;99925.81;4939794;28;20058;-81
2023/04/14 01:05:14;;;;;;;2.05;1.15;;;;;;;9.82;71.77;99878.41;4945528;28;20602;-81
2023/04/14 01:07:41;;;;;;;2.22;1.60;;;;;;;9.89;71.67;99891.91;4943853;28;20047;-81
2023/04/14 01:10:16;;;;;;;3.95;1.17;;;;;;;10.14;71.20;99916.84;4945377;28;20077;-80
2023/04/14 01:13:12;;;;;;;2.00;1.63;;;;;;;10.14;71.49;99916.84;4947555;28;20444;-79
2023/04/14 01:15:58;;;;;;;1.42;1.33;;;;;;;9.74;72.08;99857.13;4941667;28;20517;-81
2023/04/14 01:19:12;;;;;;;1.25;1.10;;;;;;;10.16;71.54;99915.72;4943523;28;20050;-80
2023/04/14 01:21:42;;;;;;;2.03;1.30;;;;;;;10.16;70.72;99915.72;4947830;28;20063;-80
2023/04/14 01:24:15;;;;;;;1.67;1.13;;;;;;;10.10;71.39;99920.78;4946059;28;20101;-83
2023/04/14 01:26:44;;;;;;;1.27;1.17;;;;;;;9.98;70.96;99889.19;4947281;28;20059;-81
2023/04/14 01:29:33;;;;;;;3.63;1.15;;;;;;;9.53;70.30;99817.63;4949758;28;20050;-79
2023/04/14 01:32:13;;;;;;;1.40;1.10;;;;;;;10.05;70.40;99914.13;4948721;28;20396;-81
2023/04/14 01:34:56;;;;;;;4.97;1.30;;;;;;;10.04;70.67;99916.91;4945603;28;20050;-79
2023/04/14 01:37:44;;;;;;;3.33;1.42;;;;;;;10.08;70.22;99909.53;4944838;28;20050;-79
2023/04/14 01:40:17;;;;;;;2.72;1.65;;;;;;;9.83;70.28;99883.56;4944954;28;20051;-80
2023/04/14 01:42:48;;;;;;;1.73;1.63;;;;;;;10.15;70.60;99918.53;4938078;28;20085;-79
2023/04/14 01:45:27;;;;;;;1.42;1.20;;;;;;;10.08;71.05;99909.53;4941719;28;20053;-82
2023/04/14 01:47:56;;;;;;;1.80;1.27;;;;;;;10.01;71.92;99902.16;4939351;28;20412;-81
2023/04/14 01:50:25;;;;;;;1.70;1.38;;;;;;;9.58;71.52;99837.41;4946324;28;20125;-82
2023/04/14 01:52:53;;;;;;;2.05;1.27;;;;;;;9.77;72.46;99880.69;4943909;28;20368;-81
2023/04/14 01:55:22;;;;;;;2.22;1.20;;;;;;;9.88;71.79;99893.72;4940263;28;20623;-82
2023/04/14 01:57:53;;;;;;;1.70;1.30;;;;;;;9.72;72.84;99882.94;4940523;28;20146;-81
2023/04/14 02:00:21;;;;;;;1.52;1.42;;;;;;;9.92;72.01;99913.66;4943699;28;20055;-81
2023/04/14 02:02:51;;;;;;;2.55;1.50;;;;;;;9.69;71.59;99875.28;4939614;28;20055;-81
2023/04/14 02:05:24;;;;;;;1.90;1.80;;;;;;;9.72;72.89;99907.63;4952493;28;20390;-81
2023/04/14 02:07:53;;;;;;;2.30;1.30;;;;;;;9.59;72.17;99886.78;4944893;28;20110;-80
2023/04/14 02:10:22;;;;;;;3.00;1.40;;;;;;;9.68;72.38;99900.13;4943103;28;20097;-81
2023/04/14 02:12:51;;;;;;;1.83;1.63;;;;;;;9.19;72.97;99819.06;4939129;28;20051;-80
2023/04/14 02:15:22;;;;;;;2.10;1.60;;;;;;;9.62;74.48;99907.69;4958940;28;20094;-81
2023/04/14 02:17:56;;;;;;;3.50;1.70;;;;;;;9.49;73.57;99875.41;4938937;28;20134;-81
2023/04/14 02:20:26;;;;;;;1.98;1.65;;;;;;;9.57;72.33;99867.53;4940501;28;20422;-82
2023/04/14 02:23:03;;;;;;;2.50;1.90;;;;;;;9.50;72.78;99885.00;4936127;28;20055;-80
2023/04/14 02:25:36;;;;;;;1.50;1.30;;;;;;;9.67;72.74;99906.41;4945171;28;20371;-80
2023/04/14 02:28:09;;;;;;;2.05;1.63;;;;;;;9.27;72.35;99831.59;4936943;28;20454;-81
2023/04/14 02:30:46;;;;;;;3.17;1.45;;;;;;;9.63;71.37;99887.31;4939074;28;20662;-80
2023/04/14 02:33:18;;;;;;;1.70;1.60;;;;;;;9.72;71.23;99899.69;4937702;28;20532;-81
2023/04/14 02:35:59;;;;;;;2.53;1.88;;;;;;;9.56;72.76;99895.03;4944374;28;20046;-79
2023/04/14 02:38:37;;;;;;;2.67;1.80;;;;;;;9.59;71.81;99889.44;4960580;28;20051;-79
2023/04/14 02:41:30;;;;;;;1.63;1.40;;;;;;;9.61;71.45;99878.66;4939039;28;20062;-81
2023/04/14 02:44:17;;;;;;;4.47;1.75;;;;;;;9.67;71.34;99886.03;4939504;28;20452;-81
2023/04/14 02:46:52;;;;;;;2.83;2.03;;;;;;;9.63;71.27;99888.13;4957845;28;20132;-80
2023/04/14 02:49:21;;;;;;;2.25;1.85;;;;;;;9.72;71.65;99890.91;4945846;28;20050;-81
2023/04/14 02:51:49;;;;;;;2.63;2.42;;;;;;;9.60;71.59;99877.00;4945716;28;20054;-81
2023/04/14 02:54:22;;;;;;;4.30;2.25;;;;;;;9.39;71.37;99829.56;4944355;28;20051;-81
2023/04/14 02:56:49;;;;;;;3.60;2.15;;;;;;;9.68;72.53;99884.22;4937044;28;20129;-81
2023/04/14 02:59:17;;;;;;;5.22;2.40;;;;;;;9.61;72.53;99874.22;4937684;28;20717;-81
2023/04/14 03:01:45;;;;;;;4.07;2.92;;;;;;;9.68;72.25;99879.75;4937349;28;20047;-82
2023/04/14 03:04:17;;;;;;;3.95;2.88;;;;;;;9.31;73.37;99840.88;4956497;28;20470;-81
2023/04/14 03:06:44;;;;;;;2.95;2.50;;;;;;;8.82;72.35;99723.78;4941024;28;20057;-80
2023/04/14 03:09:14;;;;;;;2.80;2.47;;;;;;;9.08;72.16;99781.34;4948572;28;20046;-79
2023/04/14 03:11:45;;;;;;;2.97;2.22;;;;;;;9.66;71.83;99872.91;4956728;28;20081;-79
2023/04/14 03:14:13;;;;;;;3.40;2.50;;;;;;;9.31;72.35;99824.16;4939489;28;20046;-81
2023/04/14 03:16:43;;;;;;;2.83;1.95;;;;;;;9.73;72.65;99887.25;4947081;28;20346;-81
2023/04/14 03:19:14;;;;;;;2.85;2.03;;;;;;;9.81;71.68;99876.75;4943159;28;20133;-80
2023/04/14 03:21:41;;;;;;;5.13;2.30;;;;;;;9.69;72.45;99876.13;4947342;28;20116;-79
2023/04/14 03:24:12;;;;;;;4.25;2.50;;;;;;;9.68;72.82;99860.34;4970491;28;20069;-80
2023/04/14 03:26:43;;;;;;;4.03;2.30;;;;;;;9.59;72.14;99848.84;4954154;28;20058;-81
2023/04/14 03:29:13;;;;;;;3.47;2.95;;;;;;;9.75;73.61;99885.28;4965026;28;20137;-81
2023/04/14 03:31:43;;;;;;;3.13;2.55;;;;;;;9.53;72.80;99841.47;4953396;28;20540;-81
2023/04/14 03:34:12;;;;;;;3.70;2.63;;;;;;;9.79;72.10;99884.03;4948329;28;20453;-81
2023/04/14 03:36:43;;;;;;;2.83;2.53;;;;;;;9.78;71.77;99882.34;4978960;28;20050;-80
2023/04/14 03:39:17;;;;;;;3.80;2.63;;;;;;;9.52;73.35;99853.91;4984652;28;20412;-79
2023/04/14 03:41:47;;;;;;;3.42;2.58;;;;;;;9.54;73.09;99864.34;4970530;28;20416;-81
2023/04/14 03:44:18;;;;;;;2.92;2.20;;;;;;;9.48;73.74;99862.28;4947713;28;20133;-82
2023/04/14 03:46:48;;;;;;;2.90;2.60;;;;;;;9.83;72.42;99885.41;4945270;28;20390;-81
2023/04/14 03:49:20;;;;;;;2.53;2.25;;;;;;;9.41;72.37;99827.59;4958307;28;20046;-82
2023/04/14 03:51:50;;;;;;;3.35;2.45;;;;;;;9.72;72.34;99875.00;4950623;28;20047;-81
2023/04/14 03:54:26;;;;;;;2.58;2.35;;;;;;;9.16;73.17;99807.94;4963119;28;20065;-82
2023/04/14 03:56:56;;;;;;;2.53;2.33;;;;;;;9.25;73.56;99816.78;4947383;28;20046;-80
2023/04/14 03:59:25;;;;;;;3.72;2.13;;;;;;;9.59;73.97;99883.31;4941166;28;20050;-81
2023/04/14 04:01:54;;;;;;;3.05;2.47;;;;;;;9.64;72.94;99878.38;4963041;28;20051;-81
2023/04/14 04:04:24;;;;;;;2.60;2.00;;;;;;;9.11;73.09;99800.44;4966256;28;20527;-80
2023/04/14 04:06:57;;;;;;;3.15;2.20;;;;;;;9.46;73.96;99867.72;4946979;28;20043;-81
2023/04/14 04:09:27;;;;;;;3.67;2.50;;;;;;;9.55;73.50;99885.41;4954754;28;20050;-81
2023/04/14 04:12:00;;;;;;;5.28;2.50;;;;;;;9.72;73.03;99889.06;4944444;28;20383;-81
2023/04/14 04:14:42;;;;;;;4.30;2.40;;;;;;;9.68;72.73;99892.16;4919641;28;20406;-81
2023/04/14 04:17:21;;;;;;;2.65;2.15;;;;;;;9.60;72.95;99883.13;4926629;28;20508;-80
2023/04/14 04:20:23;;;;;;;3.05;2.20;;;;;;;9.70;73.44;99898.97;4936384;28;20046;-80
2023/04/14 04:22:56;;;;;;;2.03;1.90;;;;;;;9.52;72.94;99856.56;4976584;28;20084;-80
2023/04/14 04:25:23;;;;;;;2.63;2.30;;;;;;;9.80;72.83;99897.09;4987583;28;20046;-81
2023/04/14 04:27:53;;;;;;;2.75;2.40;;;;;;;9.53;73.03;99852.91;4978205;28;20054;-81
2023/04/14 04:30:31;;;;;;;2.92;2.25;;;;;;;9.62;73.62;99875.88;4945993;28;20113;-80
2023/04/14 04:33:09;;;;;;;3.03;2.38;;;;;;;9.65;73.08;99868.63;4948448;28;20050;-79
2023/04/14 04:35:38;;;;;;;2.97;2.67;;;;;;;9.71;72.54;99891.84;4969909;28;20065;-80
2023/04/14 04:38:10;;;;;;;2.15;1.95;;;;;;;9.46;72.85;99849.19;4946907;28;20084;-80
2023/04/14 04:40:38;;;;;;;5.80;2.70;;;;;;;9.23;72.48;99805.53;4943634;28;20259;-79
2023/04/14 04:43:07;;;;;;;2.40;2.20;;;;;;;9.84;72.27;99900.31;4966039;28;20058;-81
2023/04/14 04:45:57;;;;;;;6.25;2.38;;;;;;;9.78;72.56;99895.59;4951236;28;20271;-81
2023/04/14 04:48:52;;;;;;;3.75;2.30;;;;;;;9.44;72.55;99845.84;4940745;28;20169;-79
2023/04/14 04:51:19;;;;;;;3.08;2.47;;;;;;;9.84;71.92;99897.66;4950936;28;20109;-80
2023/04/14 04:53:45;;;;;;;2.35;2.15;;;;;;;9.85;71.96;99901.97;4962402;28;20050;-81
2023/04/14 04:56:12;;;;;;;5.28;2.58;;;;;;;9.90;71.63;99897.03;4969643;28;20058;-81
2023/04/14 04:58:39;;;;;;;2.40;2.20;;;;;;;9.47;71.33;99845.56;4963855;28;20050;-79
2023/04/14 05:01:10;;;;;;;2.42;2.22;;;;;;;9.80;72.58;99898.94;4953126;28;20076;-81
2023/04/14 05:03:37;;;;;;;2.50;2.20;;;;;;;9.76;71.34;99882.50;4949588;28;20046;-81
2023/04/14 05:06:04;;;;;;;3.03;2.28;;;;;;;9.55;71.62;99864.19;4973083;28;20178;-80
2023/04/14 05:08:31;;;;;;;2.50;2.30;;;;;;;9.66;73.35;99897.63;4958760;28;20281;-82
2023/04/14 05:11:01;;;;;;;2.78;2.35;;;;;;;9.86;72.14;99908.94;4970510;28;20603;-80
2023/04/14 05:13:34;;;;;;;2.63;2.40;;;;;;;9.58;72.27;99863.91;4975696;28;20359;-82
2023/04/14 05:16:17;;;;;;;2.60;2.10;;;;;;;9.91;71.35;99916.47;4967684;28;20421;-81
2023/04/14 05:18:44;;;;;;;3.47;2.95;;;;;;;9.95;72.64;99918.66;4961104;28;20310;-79
2023/04/14 05:21:45;;;;;;;2.55;2.35;;;;;;;9.97;71.07;99921.97;4960340;28;20435;-81
2023/04/14 05:24:38;;;;;;;2.72;2.40;;;;;;;9.99;71.84;99925.31;4976641;28;20081;-79
2023/04/14 05:27:14;;;;;;;4.53;2.58;;;;;;;10.04;71.33;99901.84;4957797;28;20415;-80
2023/04/14 05:29:53;;;;;;;2.30;1.95;;;;;;;10.07;70.74;99913.97;4952459;28;20054;-79
2023/04/14 05:32:29;;;;;;;2.28;2.08;;;;;;;10.11;71.60;99914.50;4949213;28;20179;-80
2023/04/14 05:35:13;;;;;;;2.35;2.13;;;;;;;10.19;71.87;99927.84;4968403;28;20054;-80
2023/04/14 05:37:46;;;;;;;2.85;1.95;;;;;;;10.23;70.63;99931.88;4967128;28;20042;-80
2023/04/14 05:40:45;;;;;;;2.10;2.00;;;;;;;10.04;69.91;99891.22;4972039;28;20185;-80
2023/04/14 05:43:13;;;;;;;2.53;2.00;;;;;;;10.30;69.28;99932.97;4967467;28;20525;-81
2023/04/14 05:48:34;;;;;;;3.47;2.55;;;;;;;10.23;71.06;99926.56;4978872;28;21139;-80
2023/04/14 05:51:00;;;;;;;2.83;2.38;;;;;;;10.14;71.46;99906.25;4941538;28;20532;-79
2023/04/14 05:53:46;;;;;;;2.63;2.42;;;;;;;10.18;70.17;99908.44;4884366;28;20042;-81
2023/04/14 05:56:20;;;;;;;2.20;2.00;;;;;;;10.50;69.74;99938.13;4902957;28;20050;-81
2023/04/14 05:59:03;;;;;;;2.50;2.25;;;;;;;10.58;68.93;99935.53;4896599;28;20109;-81
2023/04/14 06:01:44;;;;;;;2.17;1.98;;;;;;;10.42;69.08;99920.31;4907273;28;20057;-80
2023/04/14 06:04:11;;;;;;;3.00;1.98;;;;;;;10.56;69.16;99942.81;4858889;28;20517;-78
2023/04/14 06:06:47;;;;;;;2.97;2.20;;;;;;;10.47;69.55;99928.66;4935866;28;21046;-79
2023/04/14 06:09:35;;;;;;;2.85;2.13;;;;;;;10.61;68.93;99945.88;4949853;28;20391;-80
2023/04/14 06:12:02;;;;;;;2.25;2.00;;;;;;;10.52;67.72;99909.63;4966873;28;20046;-80
2023/04/14 06:14:29;;;;;;;1.67;1.58;;;;;;;10.75;66.97;99955.91;4969880;28;20552;-79
2023/04/14 06:16:56;;;;;;;4.13;2.10;;;;;;;10.51;67.24;99930.03;4944570;28;20252;-79
2023/04/14 06:19:25;;;;;;;2.42;1.95;;;;;;;10.76;66.97;99959.44;4948259;28;20544;-78
2023/04/14 06:21:54;;;;;;;2.00;1.77;;;;;;;10.66;66.02;99923.19;4952363;28;20054;-80
2023/04/14 06:24:24;;;;;;;1.80;1.70;;;;;;;10.77;65.57;99943.34;4950295;28;20077;-81
2023/04/14 06:26:51;;;;;;;3.25;2.30;;;;;;;10.69;65.21;99930.00;4954135;28;20062;-79
2023/04/14 06:29:18;;;;;;;3.35;1.80;;;;;;;10.90;65.41;99950.91;4948655;28;20120;-81
2023/04/14 06:31:45;;;;;;;1.55;1.45;;;;;;;10.31;63.74;99833.81;4954909;28;20066;-78
2023/04/14 06:34:15;;;;;;;3.72;2.45;;;;;;;10.88;64.22;99948.41;4949694;28;20085;-79
2023/04/14 06:36:41;;;;;;;2.33;1.90;;;;;;;11.05;64.31;99969.78;4953529;28;20061;-80
2023/04/14 06:39:08;;;;;;;4.13;2.28;;;;;;;10.77;65.53;99922.09;4941868;28;20384;-80
2023/04/14 06:41:35;;;;;;;3.97;2.67;;;;;;;11.20;64.46;99962.09;4944032;28;20497;-79
2023/04/14 06:44:02;;;;;;;6.30;2.50;;;;;;;11.04;65.21;99944.19;4932416;28;20047;-81
2023/04/14 06:46:28;;;;;;;4.90;2.40;;;;;;;10.54;66.10;99867.84;4939738;28;20120;-80
2023/04/14 06:48:58;;;;;;;2.78;2.42;;;;;;;11.14;65.40;99958.25;4948191;28;20042;-79
2023/04/14 06:51:25;;;;;;;3.65;2.22;;;;;;;11.11;65.36;99931.97;4973051;28;20365;-78
2023/04/14 06:53:55;;;;;;;2.55;1.80;;;;;;;11.24;64.51;99942.19;4944069;28;20051;-77
2023/04/14 06:56:25;;;;;;;3.55;2.17;;;;;;;11.26;65.38;99972.94;4932723;28;20063;-79
2023/04/14 06:58:54;;;;;;;2.03;1.83;;;;;;;11.20;64.46;99960.25;4954994;28;20051;-78
2023/04/14 07:01:24;;;;;;;2.63;2.20;;;;;;;11.05;64.54;99951.19;4958583;28;20059;-81
2023/04/14 07:03:57;;;;;;;4.60;1.50;;;;;;;11.22;64.65;99971.56;4941509;28;20051;-79
2023/04/14 07:06:30;;;;;;;2.90;1.88;;;;;;;10.88;66.36;99935.13;4948087;28;20162;-80
2023/04/14 07:09:00;;;;;;;2.05;1.85;;;;;;;11.32;64.89;99982.09;4955588;28;20058;-77
2023/04/14 07:11:41;;;;;;;2.85;1.98;;;;;;;10.98;65.27;99936.88;4934291;28;20054;-80
2023/04/14 07:14:24;;;;;;;1.88;1.75;;;;;;;11.37;64.19;99989.59;4925163;28;20256;-76
2023/04/14 07:17:03;;;;;;;4.30;1.80;;;;;;;11.49;63.08;99994.47;4931835;28;20451;-78
2023/04/14 07:19:30;;;;;;;3.25;2.15;;;;;;;11.10;64.67;99947.06;4929949;28;20047;-77
2023/04/14 07:21:56;;;;;;;3.47;2.10;;;;;;;11.39;65.07;100009.72;4946511;28;20101;-79
2023/04/14 07:24:26;;;;;;;2.83;2.35;;;;;;;11.21;65.88;99977.84;4940601;28;20076;-78
2023/04/14 07:26:56;;;;;;;2.90;1.80;;;;;;;11.23;64.30;99997.13;4926518;28;20109;-79
2023/04/14 07:29:27;;;;;;;3.55;2.05;;;;;;;11.43;64.29;100015.53;4923423;28;20050;-78
2023/04/14 07:32:32;;;;;;;4.77;1.93;;;;;;;11.37;64.86;100026.81;4949356;28;20123;-79
2023/04/14 07:34:59;;;;;;;3.53;2.53;;;;;;;10.98;64.17;99958.94;4925373;28;20054;-78
2023/04/14 07:37:35;;;;;;;5.45;2.22;;;;;;;11.43;64.19;100036.78;4944199;28;20080;-80
2023/04/14 07:40:06;;;;;;;3.33;2.13;;;;;;;11.38;65.49;100044.41;4962268;28;20088;-81
2023/04/14 07:42:40;;;;;;;4.20;2.35;;;;;;;11.23;64.87;100026.34;4957263;28;20473;-81
2023/04/14 07:45:07;;;;;;;3.28;2.60;;;;;;;11.21;64.00;100012.38;4940793;28;20055;-81
2023/04/14 07:47:37;;;;;;;8.65;2.60;;;;;;;11.29;63.91;100036.38;4949836;28;20500;-82
2023/04/14 07:50:04;;;;;;;3.95;2.60;;;;;;;11.15;65.23;100021.00;4964109;28;20408;-81
2023/04/14 07:52:31;;;;;;;6.03;3.17;;;;;;;11.44;66.07;100070.38;4981122;28;20097;-81
2023/04/14 07:55:03;;;;;;;5.45;3.10;;;;;;;11.31;66.06;100063.63;4950400;28;20406;-81
2023/04/14 07:57:37;;;;;;;6.53;3.70;;;;;;;11.38;68.02;100078.94;4957189;28;20235;-81
2023/04/14 08:00:05;;;;;;;7.72;5.88;;;;;;;11.41;68.96;100094.56;4944075;28;20055;-80
2023/04/14 08:02:32;;;;;;;8.02;6.38;;;;;;;11.15;68.93;100066.16;4958554;28;20081;-81
2023/04/14 08:05:00;;;;;;;7.82;5.55;;;;;;;11.31;69.97;100100.84;4974833;28;20440;-79
2023/04/14 08:07:30;;;;;;;8.20;6.60;;;;;;;11.16;69.44;100083.75;4978356;28;20411;-78
2023/04/14 08:09:58;;;;;;;11.02;6.70;;;;;;;11.30;69.94;100116.94;4980315;28;20084;-80
2023/04/14 08:12:24;;;;;;;8.35;6.05;;;;;;;10.87;70.66;100047.66;4990092;28;20046;-80
2023/04/14 08:14:55;;;;;;;8.18;6.28;;;;;;;11.19;70.33;100104.72;4968401;28;20256;-78
2023/04/14 08:17:23;;;;;;;6.75;5.72;;;;;;;10.66;70.64;100023.22;4939442;28;20130;-79
2023/04/14 08:20:10;;;;;;;8.05;6.05;;;;;;;11.20;69.46;100113.53;4963845;28;20291;-79
2023/04/14 08:22:39;;;;;;;7.05;5.65;;;;;;;11.30;70.44;100141.66;4949005;28;20050;-79
2023/04/14 08:25:20;;;;;;;9.80;5.90;;;;;;;11.16;68.18;100115.63;4973105;28;20049;-79
2023/04/14 08:27:47;;;;;;;7.07;5.55;;;;;;;11.30;67.80;100152.31;4985399;28;20061;-79
2023/04/14 08:30:23;;;;;;;7.00;5.28;;;;;;;11.32;68.65;100152.16;4935150;28;20089;-79
2023/04/14 08:32:50;;;;;;;9.00;6.40;;;;;;;11.12;69.74;100127.56;4965516;28;20054;-79
2023/04/14 08:35:17;;;;;;;6.90;6.20;;;;;;;11.26;69.53;100153.63;4935855;28;20050;-79
2023/04/14 08:38:03;;;;;;;7.90;6.47;;;;;;;11.14;69.84;100136.22;4963848;28;20050;-80
2023/04/14 08:41:02;;;;;;;8.15;6.40;;;;;;;11.26;70.25;100153.63;4943275;28;20050;-80
2023/04/14 08:43:34;;;;;;;8.35;6.63;;;;;;;11.23;71.11;100159.22;4958671;28;20047;-78
2023/04/14 08:46:03;;;;;;;;;;;;;;;11.21;70.88;100165.66;4952237;28;20054;-79
2023/04/14 08:48:30;;;;;;;10.57;6.97;;;;;;;11.11;70.55;100149.78;4961342;28;19922;-80
2023/04/14 08:51:17;;;;;;;11.98;7.05;;;;;;;11.33;71.84;100170.63;4950753;28;20046;-80
2023/04/14 08:57:26;;;;;;;7.47;6.65;;;;;;;11.27;72.02;100165.06;4945573;28;20128;-80
2023/04/14 08:59:57;;;;;;;12.05;7.97;;;;;;;11.07;72.80;100114.75;4946544;28;20062;-81
2023/04/14 09:02:26;;;;;;;9.00;7.47;;;;;;;10.91;72.80;100080.03;4946418;28;20073;-82
2023/04/14 09:05:04;;;;;;;8.27;7.00;;;;;;;11.65;71.63;100195.81;4963955;28;20785;-81
2023/04/14 09:07:37;;;;;;;9.15;7.78;;;;;;;11.34;71.86;100156.34;4923433;28;20511;-81
2023/04/14 09:10:06;;;;;;;11.63;8.02;;;;;;;11.60;71.07;100198.06;4951380;28;20298;-81
2023/04/14 09:12:40;;;;;;;12.40;7.97;;;;;;;11.71;70.75;100189.03;4937554;28;20054;-79
2023/04/14 09:15:23;;;;;;;8.63;7.00;;;;;;;11.57;68.62;100198.38;4880793;29;20119;-82
2023/04/14 09:17:53;;;;;;;7.97;7.18;;;;;;;11.59;69.94;100195.59;4878017;29;20059;-81
2023/04/14 09:20:23;;;;;;;9.18;6.97;;;;;;;11.65;69.42;100193.16;4860859;29;20079;-81
2023/04/14 09:23:11;;;;;;;8.77;7.30;;;;;;;11.66;69.01;100202.78;4890151;29;20125;-80
2023/04/14 09:25:44;;;;;;;9.68;6.80;;;;;;;11.70;67.92;100190.88;4896156;29;20064;-79
2023/04/14 09:28:17;;;;;;;8.88;6.65;;;;;;;11.81;67.56;100179.16;4869894;29;20408;-80
2023/04/14 09:30:49;;;;;;;8.13;6.20;;;;;;;11.92;66.69;100186.09;4881419;29;20048;-78
2023/04/14 09:33:22;;;;;;;9.77;6.57;;;;;;;11.97;67.25;100192.59;4854841;29;20396;-79
2023/04/14 09:35:50;;;;;;;10.80;6.57;;;;;;;11.66;68.13;100135.50;4885893;29;20044;-79
2023/04/14 09:38:49;;;;;;;7.93;6.03;;;;;;;12.28;65.54;100197.47;4860055;29;20055;-79
2023/04/14 09:41:58;;;;;;;11.93;6.80;;;;;;;12.31;67.07;100185.69;4903235;29;20074;-80
2023/04/14 09:44:55;;;;;;;12.02;6.60;;;;;;;12.35;66.95;100195.81;4844322;29;20090;-80
2023/04/14 09:47:25;;;;;;;12.35;6.90;;;;;;;12.43;66.34;100181.75;4930849;28;20052;-79
2023/04/14 09:49:56;;;;;;;11.27;7.25;;;;;;;12.43;65.65;100163.13;4947464;28;20303;-80
2023/04/14 09:55:33;;;;;;;10.63;6.35;;;;;;;12.76;66.28;100185.38;4914439;28;20047;-81
2023/04/14 09:58:03;;;;;;;7.88;6.32;;;;;;;12.86;65.32;100161.25;4925658;28;20514;-81
2023/04/14 10:00:30;;;;;;;11.82;6.85;;;;;;;13.14;64.23;100164.50;4909552;28;20055;-80
2023/04/14 10:02:59;;;;;;;9.43;7.65;;;;;;;13.27;64.11;100188.03;4895005;28;20086;-81
2023/04/14 10:05:38;;;;;;;12.57;6.45;;;;;;;13.24;65.19;100180.34;4905334;28;20079;-82
2023/04/14 10:08:06;;;;;;;8.07;5.35;;;;;;;13.24;63.19;100140.38;4896542;28;20078;-81
2023/04/14 10:10:33;;;;;;;8.07;5.65;;;;;;;13.32;63.78;100155.56;4891204;28;20558;-81
2023/04/14 10:13:02;;;;;;;8.75;5.07;;;;;;;13.63;63.77;100182.41;4921047;28;20051;-81
2023/04/14 10:15:35;;;;;;;6.53;5.18;;;;;;;13.61;61.86;100163.06;4950894;28;20046;-79
2023/04/14 10:18:02;;;;;;;10.07;5.03;;;;;;;13.54;62.32;100144.22;4935119;28;20054;-80
2023/04/14 10:20:30;;;;;;;9.20;4.38;;;;;;;13.22;61.75;100073.06;4962674;28;20137;-81
2023/04/14 10:23:04;;;;;;;7.60;4.53;;;;;;;13.95;59.76;100175.41;4959212;28;20042;-80
2023/04/14 10:25:35;;;;;;;7.00;3.53;;;;;;;14.01;60.09;100180.06;4922063;28;20412;-80
2023/04/14 10:28:16;;;;;;;4.78;3.97;;;;;;;14.13;59.42;100181.38;4951035;28;20054;-80
2023/04/14 10:30:43;;;;;;;8.05;4.53;;;;;;;14.03;60.01;100154.03;4934521;28;20577;-81
2023/04/14 10:33:24;;;;;;;7.10;4.20;;;;;;;14.19;61.57;100162.00;4946803;28;20074;-81
2023/04/14 10:35:59;;;;;;;6.28;4.00;;;;;;;14.35;60.25;100147.78;4926766;28;20104;-82
2023/04/14 10:38:43;;;;;;;14.52;4.22;;;;;;;14.36;58.66;100119.25;4959641;28;20058;-82
2023/04/14 10:41:16;;;;;;;5.88;3.38;;;;;;;14.39;60.39;100095.69;4958457;28;20070;-82
2023/04/14 10:43:52;;;;;;;4.45;3.17;;;;;;;14.41;57.69;100084.84;4934521;28;20050;-82
2023/04/14 10:46:42;;;;;;;4.65;3.00;;;;;;;14.95;56.21;100163.25;4930818;28;20421;-79
2023/04/14 10:49:12;;;;;;;3.63;2.75;;;;;;;14.87;57.25;100133.06;4948627;28;20100;-80
2023/04/14 10:51:42;;;;;;;3.92;1.33;;;;;;;14.43;54.62;100013.41;4946367;28;20050;-80
2023/04/14 10:54:21;;;;;;;1.83;1.13;;;;;;;15.45;52.33;100139.69;4952721;28;20057;-79
2023/04/14 10:57:08;;;;;;;2.33;1.58;;;;;;;15.24;51.16;100075.31;4936422;28;20494;-79
2023/04/14 10:59:47;;;;;;;2.05;1.10;;;;;;;15.79;48.90;100157.16;4915556;28;20050;-78
2023/04/14 11:02:24;;;;;;;5.85;1.33;;;;;;;14.78;49.79;100005.84;4939406;28;20060;-79
2023/04/14 11:05:10;;;;;;;2.40;1.20;;;;;;;15.63;49.64;100147.38;4886707;28;20616;-78
2023/04/14 11:07:54;;;;;;;5.03;1.50;;;;;;;15.63;51.12;100143.88;4941621;28;20038;-81
2023/04/14 11:10:26;;;;;;;;;;;;;;;15.83;49.63;100150.44;4975860;28;20054;-80
2023/04/14 11:13:02;;;;;;;2.83;1.60;;;;;;;15.74;48.84;100130.09;4937203;28;20337;-79
2023/04/14 11:16:04;;;;;;;2.70;1.13;;;;;;;15.73;47.94;100123.09;4934869;28;20078;-79
2023/04/14 11:18:50;;;;;;;5.20;2.63;;;;;;;15.86;47.73;100134.00;4922272;28;20425;-81
2023/04/14 11:21:17;;;;;;;33.70;5.95;;;;;;;15.85;47.83;100123.47;4956041;28;20046;-81
2023/04/14 11:23:50;;;;;;;12.57;2.70;;;;;;;15.96;47.30;100123.84;4975406;28;20309;-81
2023/04/14 11:26:17;;;;;;;3.05;1.50;;;;;;;16.07;46.73;100129.75;4942743;28;20058;-80
2023/04/14 11:28:45;;;;;;;2.38;1.20;;;;;;;15.73;46.84;100069.59;4921907;28;20054;-80
2023/04/14 11:31:28;;;;;;;5.20;1.10;;;;;;;16.24;45.41;100131.28;4938797;28;20051;-79
2023/04/14 11:33:57;;;;;;;2.55;1.25;;;;;;;15.34;44.97;99984.97;4912771;28;20330;-82
2023/04/14 11:36:35;;;;;;;3.88;1.10;;;;;;;16.41;42.08;100111.31;4933190;28;20046;-81
2023/04/14 11:39:17;;;;;;;2.50;0.75;;;;;;;15.77;41.91;100018.16;4942944;28;20160;-79
2023/04/14 11:41:47;;;;;;;0.98;0.63;;;;;;;16.59;40.79;100110.91;4940217;28;20624;-80
2023/04/14 11:44:35;;;;;;;1.17;0.70;;;;;;;16.76;39.12;100103.47;4961788;28;20490;-80
2023/04/14 11:47:03;;;;;;;2.60;2.08;;;;;;;16.78;40.70;100109.50;4947170;28;20416;-80
2023/04/14 11:49:36;;;;;;;0.68;0.50;;;;;;;16.94;38.24;100104.94;4939356;28;20399;-80
2023/04/14 11:52:07;;;;;;;1.35;0.90;;;;;;;17.06;39.39;100084.63;4939700;28;20113;-80
2023/04/14 11:54:37;;;;;;;1.95;1.13;;;;;;;17.49;39.28;100079.25;4944928;28;20054;-80
2023/04/14 11:57:09;;;;;;;6.63;1.20;;;;;;;17.37;37.25;99985.03;4941635;28;20436;-80
2023/04/14 11:59:48;;;;;;;1.63;1.00;;;;;;;18.36;37.73;100077.97;4947651;28;20137;-80
2023/04/14 12:02:16;;;;;;;4.82;0.93;;;;;;;18.81;36.51;100088.28;4932845;28;20320;-80
2023/04/14 12:04:49;;;;;;;1.15;0.90;;;;;;;19.11;36.27;100064.56;4976479;28;20085;-79
2023/04/14 12:07:18;;;;;;;0.93;0.60;;;;;;;19.19;36.93;100042.81;4946759;28;20061;-80
2023/04/14 12:09:47;;;;;;;1.55;0.95;;;;;;;19.28;36.82;100044.28;4949450;28;20057;-80
2023/04/14 12:12:20;;;;;;;1.65;0.88;;;;;;;19.37;34.53;100048.44;4946977;28;20077;-79
2023/04/14 12:14:48;;;;;;;1.63;1.10;;;;;;;19.41;36.96;100071.19;4956273;28;20058;-80